< < Back
Terminal Aerodrome Forecast


Current Version              Previous Versions:   1  2  3  4  5  6  7  8  9  

Terminal Aerodrome Forecast

071
FTUS44 KBMX 190000 AAB
TAFTCL
TAF AMD
KTCL 190052Z 1901/1924 36008KT P6SM VCTS BKN100CB
      TEMPO 1901/1902 VRB08G20KT 2SM TSRA BKN050CB
     FM190200 02002KT P6SM BKN100=



Latest METAR

205
SAUS70 KWBC 191400 RRC
MTRTCL
METAR KTCL 191353Z AUTO 05005KT 10SM CLR 24/20 A3003 RMK AO2 SLP165
T02440200


USA.gov is the U.S. government's official web portal to all federal, state and local government web resources and services.